Time;durP1;ratioP1;P1;durP2;ratioP2;P2;SDS_P1;SDS_P2;PMS_P1;PMS_P2;Temp;Humidity;BMP_temperature;BMP_pressure;BME280_temperature;BME280_humidity;BME280_pressure;Samples;Min_cycle;Max_cycle;Signal;HPM_P1;HPM_P2
2023/07/25 00:01:32;;;;;;;2.03;1.67;;;23.30;75.40;22.70;95645.00;;;;5072855;28;20195;-84
2023/07/25 00:04:00;;;;;;;2.27;2.07;;;23.30;75.30;22.70;95640.00;;;;5084973;28;20322;-85
2023/07/25 00:06:27;;;;;;;1.73;1.63;;;23.20;75.20;22.70;95635.00;;;;5090071;28;20260;-86
2023/07/25 00:08:54;;;;;;;2.20;2.00;;;23.20;75.40;22.60;95637.00;;;;5080430;28;20626;-83
2023/07/25 00:11:23;;;;;;;4.27;2.23;;;23.20;75.40;22.60;95634.00;;;;5074799;28;20195;-85
2023/07/25 00:13:50;;;;;;;2.13;1.93;;;23.20;75.10;22.60;95628.00;;;;5081374;28;20197;-87
2023/07/25 00:16:17;;;;;;;2.20;1.60;;;23.20;74.90;22.60;95625.00;;;;5081870;28;20280;-83
2023/07/25 00:18:44;;;;;;;1.60;1.50;;;23.10;75.00;22.50;95618.00;;;;5080548;28;20192;-82
2023/07/25 00:21:12;;;;;;;1.80;1.70;;;23.10;75.10;22.50;95621.00;;;;5094185;28;20208;-83
2023/07/25 00:23:39;;;;;;;2.47;1.60;;;23.10;75.20;22.50;95619.00;;;;5092760;28;20206;-82
2023/07/25 00:26:08;;;;;;;2.63;1.63;;;23.10;75.20;22.50;95611.00;;;;5080240;28;20582;-82
2023/07/25 00:28:37;;;;;;;2.93;1.67;;;23.00;75.20;22.40;95621.00;;;;5090165;28;20286;-83
2023/07/25 00:31:08;;;;;;;2.47;2.07;;;23.00;76.00;22.40;95625.00;;;;5092126;28;20283;-90
2023/07/25 00:33:35;;;;;;;2.27;2.10;;;23.00;75.50;22.40;95619.00;;;;5070601;28;20190;-82
2023/07/25 00:36:03;;;;;;;1.93;1.70;;;23.00;75.30;22.40;95615.00;;;;5073404;28;20212;-83
2023/07/25 00:38:30;;;;;;;2.33;2.00;;;23.00;75.30;22.40;95610.00;;;;5082985;28;20311;-83
2023/07/25 00:40:57;;;;;;;2.20;2.00;;;23.00;75.20;22.40;95599.00;;;;5076744;28;20280;-82
2023/07/25 00:43:25;;;;;;;2.90;2.00;;;22.90;75.30;22.30;95601.00;;;;5090085;28;20200;-82
2023/07/25 00:45:53;;;;;;;2.83;2.20;;;22.90;75.40;22.30;95597.00;;;;5100477;28;20219;-85
2023/07/25 00:48:21;;;;;;;2.20;2.00;;;22.90;75.60;22.30;95606.00;;;;5088619;28;20203;-82
2023/07/25 00:50:48;;;;;;;2.00;1.80;;;22.90;75.60;22.30;95602.00;;;;5080228;28;20624;-82
2023/07/25 00:53:17;;;;;;;2.57;2.00;;;22.90;76.30;22.30;95592.00;;;;5097855;28;20271;-82
2023/07/25 00:55:44;;;;;;;2.60;1.93;;;22.90;75.60;22.30;95588.00;;;;5095942;28;20200;-86
2023/07/25 00:58:11;;;;;;;2.80;2.10;;;22.90;75.60;22.30;95590.00;;;;5089225;28;20331;-86
2023/07/25 01:00:39;;;;;;;2.23;2.03;;;22.90;75.50;22.30;95590.00;;;;5079186;28;20275;-82
2023/07/25 01:03:09;;;;;;;1.90;1.80;;;22.90;75.40;22.30;95588.00;;;;5081497;28;20200;-89
2023/07/25 01:05:44;;;;;;;2.93;2.20;;;22.90;75.60;22.20;95588.00;;;;5089229;28;20216;-86
2023/07/25 01:08:12;;;;;;;3.27;2.17;;;22.80;75.60;22.20;95583.00;;;;5086766;28;20227;-82
2023/07/25 01:10:39;;;;;;;2.13;2.03;;;22.80;75.30;22.20;95583.00;;;;5080858;28;20644;-86
2023/07/25 01:13:07;;;;;;;1.97;1.83;;;22.80;75.20;22.20;95573.00;;;;5082648;28;20204;-85
2023/07/25 01:15:36;;;;;;;2.67;2.10;;;22.80;75.20;22.20;95565.00;;;;5095394;28;20268;-82
2023/07/25 01:18:04;;;;;;;2.53;1.80;;;22.80;75.30;22.20;95565.00;;;;5098903;28;20265;-81
2023/07/25 01:20:36;;;;;;;2.00;1.87;;;22.80;75.30;22.10;95559.00;;;;5095062;28;20230;-82
2023/07/25 01:23:06;;;;;;;2.50;1.80;;;22.70;75.90;22.10;95558.00;;;;5101326;28;20184;-85
2023/07/25 01:25:42;;;;;;;2.43;2.20;;;22.70;75.00;22.10;95559.00;;;;5093563;28;20200;-82
2023/07/25 01:28:09;;;;;;;2.17;2.00;;;22.70;75.00;22.00;95560.00;;;;5095801;28;20225;-82
2023/07/25 01:30:37;;;;;;;4.90;2.30;;;22.70;74.90;22.00;95549.00;;;;5093565;28;20199;-82
2023/07/25 01:33:04;;;;;;;1.73;1.63;;;22.60;75.10;22.00;95553.00;;;;5103409;28;20290;-82
2023/07/25 01:35:31;;;;;;;4.10;2.27;;;22.60;76.00;22.00;95547.00;;;;5094667;28;20334;-83
2023/07/25 01:37:58;;;;;;;2.10;1.90;;;22.60;75.30;22.00;95546.00;;;;5089648;28;20609;-83
2023/07/25 01:40:28;;;;;;;1.67;1.57;;;22.60;75.50;22.00;95541.00;;;;5094064;28;20191;-82
2023/07/25 01:42:57;;;;;;;3.13;2.03;;;22.60;75.60;21.90;95543.00;;;;5084293;28;20206;-82
2023/07/25 01:45:24;;;;;;;1.87;1.77;;;22.60;75.50;21.90;95548.00;;;;5073452;28;20189;-81
2023/07/25 01:47:51;;;;;;;2.30;2.10;;;22.50;75.40;21.90;95551.00;;;;5073923;28;20279;-82
2023/07/25 01:50:18;;;;;;;2.30;2.10;;;22.50;76.10;21.90;95560.00;;;;5073582;28;20197;-81
2023/07/25 01:52:45;;;;;;;2.50;2.10;;;22.50;75.40;21.90;95569.00;;;;5080469;28;20215;-81
2023/07/25 01:55:13;;;;;;;2.63;2.43;;;22.50;75.40;21.80;95566.00;;;;5082754;28;20203;-81
2023/07/25 01:57:40;;;;;;;2.70;2.50;;;22.50;75.40;21.80;95563.00;;;;5086737;28;20231;-81
2023/07/25 02:00:10;;;;;;;2.40;2.20;;;22.40;75.40;21.80;95560.00;;;;5072232;28;20566;-81
2023/07/25 02:02:37;;;;;;;2.37;2.17;;;22.40;75.70;21.80;95551.00;;;;5071620;28;20203;-81
2023/07/25 02:05:05;;;;;;;3.53;2.13;;;22.40;75.80;21.80;95539.00;;;;5081264;28;20192;-83
2023/07/25 02:07:33;;;;;;;2.67;2.33;;;22.40;75.80;21.80;95538.00;;;;5077570;28;20215;-84
2023/07/25 02:10:00;;;;;;;2.37;2.27;;;22.40;75.80;21.80;95547.00;;;;5080772;28;20668;-81
2023/07/25 02:12:31;;;;;;;2.67;2.00;;;22.50;76.10;21.80;95564.00;;;;5084172;28;20208;-82
2023/07/25 02:14:58;;;;;;;2.80;2.60;;;22.40;76.00;21.80;95577.00;;;;5074286;28;20572;-80
2023/07/25 02:17:26;;;;;;;3.70;2.80;;;22.40;76.10;21.80;95571.00;;;;5080068;28;20890;-83
2023/07/25 02:19:54;;;;;;;2.90;2.70;;;22.40;76.50;21.80;95565.00;;;;5078219;28;20196;-81
2023/07/25 02:22:21;;;;;;;3.30;2.57;;;22.40;76.50;21.80;95555.00;;;;5069804;28;20196;-83
2023/07/25 02:24:48;;;;;;;2.50;2.30;;;22.40;76.40;21.80;95556.00;;;;5067040;28;20189;-82
2023/07/25 02:27:15;;;;;;;3.37;2.17;;;22.40;76.40;21.80;95546.00;;;;5075089;28;20302;-81
2023/07/25 02:29:42;;;;;;;5.10;3.00;;;22.40;76.40;21.80;95531.00;;;;5077795;28;20196;-81
2023/07/25 02:32:10;;;;;;;4.17;3.77;;;22.30;76.30;21.80;95510.00;;;;5080504;28;20204;-82
2023/07/25 02:34:39;;;;;;;3.83;3.53;;;22.40;76.40;21.80;95485.00;;;;5080284;28;20200;-83
2023/07/25 02:37:07;;;;;;;3.63;3.33;;;22.30;76.40;21.80;95487.00;;;;5077206;28;20294;-81
2023/07/25 02:39:34;;;;;;;4.37;4.07;;;22.30;76.60;21.80;95487.00;;;;5097011;28;20285;-83
2023/07/25 02:42:01;;;;;;;3.80;3.47;;;22.30;76.70;21.80;95488.00;;;;5096091;28;20272;-83
2023/07/25 02:44:28;;;;;;;3.70;2.77;;;22.30;76.90;21.80;95478.00;;;;5100520;28;20199;-82
2023/07/25 02:46:55;;;;;;;4.03;3.10;;;22.30;77.10;21.80;95466.00;;;;5097541;28;20298;-83
2023/07/25 02:49:22;;;;;;;3.27;3.00;;;22.30;76.90;21.80;95470.00;;;;5090274;28;20202;-82
2023/07/25 02:51:51;;;;;;;3.17;2.93;;;22.30;76.90;21.80;95485.00;;;;5097326;28;20199;-83
2023/07/25 02:54:20;;;;;;;3.50;2.77;;;22.30;77.20;21.80;95487.00;;;;5088408;28;20661;-82
2023/07/25 02:56:47;;;;;;;3.00;2.80;;;22.30;77.20;21.70;95493.00;;;;5076711;28;20216;-82
2023/07/25 02:59:14;;;;;;;2.97;2.77;;;22.30;77.20;21.80;95495.00;;;;5067427;28;20212;-81
2023/07/25 03:01:41;;;;;;;2.83;2.63;;;22.30;77.20;21.80;95483.00;;;;5072443;28;20203;-82
2023/07/25 03:04:09;;;;;;;2.90;2.60;;;22.30;77.80;21.80;95485.00;;;;5079351;28;20278;-81
2023/07/25 03:06:36;;;;;;;2.90;2.70;;;22.30;77.10;21.70;95482.00;;;;5072576;28;20310;-81
2023/07/25 03:09:04;;;;;;;3.50;2.93;;;22.30;77.00;21.70;95488.00;;;;5071176;28;20282;-80
2023/07/25 03:11:33;;;;;;;3.10;2.80;;;22.30;76.80;21.70;95488.00;;;;5073700;28;20580;-83
2023/07/25 03:14:00;;;;;;;4.03;2.60;;;22.30;76.70;21.70;95487.00;;;;5077434;28;20200;-82
2023/07/25 03:16:28;;;;;;;3.83;3.00;;;22.30;76.80;21.70;95482.00;;;;5056390;28;20222;-84
2023/07/25 03:18:55;;;;;;;4.33;3.30;;;22.30;76.70;21.70;95488.00;;;;5074648;28;20593;-81
2023/07/25 03:21:22;;;;;;;2.83;2.60;;;22.30;76.80;21.70;95499.00;;;;5067400;28;20194;-81
2023/07/25 03:23:49;;;;;;;3.33;3.03;;;22.30;77.00;21.70;95508.00;;;;5077498;28;20795;-82
2023/07/25 03:26:18;;;;;;;4.90;4.50;;;22.30;77.10;21.70;95503.00;;;;5071249;28;20216;-81
2023/07/25 03:28:46;;;;;;;4.90;4.13;;;22.30;77.20;21.70;95501.00;;;;5083092;28;20208;-81
2023/07/25 03:31:14;;;;;;;5.20;4.80;;;22.30;77.20;21.70;95503.00;;;;5073686;28;20211;-81
2023/07/25 03:33:41;;;;;;;4.93;4.53;;;22.30;77.20;21.70;95505.00;;;;5075700;28;20554;-81
2023/07/25 03:36:09;;;;;;;3.83;3.53;;;22.30;77.20;21.70;95491.00;;;;5083674;28;20623;-81
2023/07/25 03:38:36;;;;;;;4.10;3.77;;;22.20;77.20;21.70;95486.00;;;;5085913;28;20243;-82
2023/07/25 03:41:04;;;;;;;3.70;3.40;;;22.20;77.30;21.70;95477.00;;;;5068662;28;20672;-83
2023/07/25 03:43:34;;;;;;;3.00;2.70;;;22.30;77.40;21.70;95472.00;;;;5090248;28;20291;-85
2023/07/25 03:46:02;;;;;;;2.73;2.53;;;22.30;77.50;21.70;95475.00;;;;5074639;28;20307;-82
2023/07/25 03:48:29;;;;;;;3.27;2.67;;;22.30;77.60;21.70;95469.00;;;;5082314;28;20199;-81
2023/07/25 03:50:56;;;;;;;4.33;2.33;;;22.30;77.50;21.70;95470.00;;;;5094259;28;20208;-83
2023/07/25 03:53:23;;;;;;;5.13;2.40;;;22.30;78.40;21.70;95473.00;;;;5084724;28;20208;-81
2023/07/25 03:55:51;;;;;;;2.20;2.00;;;22.30;77.70;21.70;95481.00;;;;5073815;28;20673;-83
2023/07/25 03:58:18;;;;;;;3.87;2.40;;;22.30;77.70;21.70;95478.00;;;;5082169;28;20242;-81
2023/07/25 04:00:46;;;;;;;3.53;2.37;;;22.30;77.60;21.70;95472.00;;;;5073247;28;20282;-82
2023/07/25 04:03:13;;;;;;;3.97;2.50;;;22.30;77.40;21.80;95470.00;;;;5089046;28;20205;-81
2023/07/25 04:05:43;;;;;;;4.00;2.07;;;22.30;77.30;21.80;95459.00;;;;5080383;28;20200;-82
2023/07/25 04:08:10;;;;;;;2.60;2.40;;;22.40;77.40;21.80;95459.00;;;;5071771;28;20283;-81
2023/07/25 04:10:38;;;;;;;3.63;2.53;;;22.40;77.50;21.80;95458.00;;;;5075805;28;20231;-81
2023/07/25 04:13:05;;;;;;;2.27;2.07;;;22.40;77.40;21.80;95461.00;;;;5087900;28;20275;-81
2023/07/25 04:15:33;;;;;;;2.53;2.33;;;22.40;77.40;21.80;95471.00;;;;5070234;28;20197;-83
2023/07/25 04:18:01;;;;;;;3.67;2.00;;;22.40;77.40;21.80;95466.00;;;;5080833;28;20721;-81
2023/07/25 04:20:28;;;;;;;2.37;2.17;;;22.40;77.40;21.80;95471.00;;;;5078220;28;20563;-81
2023/07/25 04:22:56;;;;;;;3.07;2.07;;;22.40;77.40;21.80;95475.00;;;;5086461;28;20234;-81
2023/07/25 04:25:23;;;;;;;3.07;2.10;;;22.40;77.60;21.80;95483.00;;;;5077588;28;20191;-82
2023/07/25 04:27:50;;;;;;;3.97;2.20;;;22.40;77.80;21.80;95472.00;;;;5075585;28;20306;-81
2023/07/25 04:30:17;;;;;;;3.07;2.33;;;22.40;77.80;21.80;95467.00;;;;5083343;28;20191;-82
2023/07/25 04:32:45;;;;;;;2.73;2.53;;;22.40;77.60;21.80;95475.00;;;;5066879;28;20570;-82
2023/07/25 04:35:13;;;;;;;4.20;3.80;;;22.40;78.20;21.80;95482.00;;;;5074342;28;20731;-82
2023/07/25 04:37:40;;;;;;;4.63;3.87;;;22.40;77.50;21.80;95494.00;;;;5066808;28;20806;-81
2023/07/25 04:40:10;;;;;;;4.60;4.27;;;22.40;77.60;21.80;95493.00;;;;5088871;28;20203;-82
2023/07/25 04:42:37;;;;;;;4.57;3.60;;;22.40;77.60;21.80;95500.00;;;;5086536;28;20664;-82
2023/07/25 04:45:05;;;;;;;3.93;3.60;;;22.40;78.20;21.80;95509.00;;;;5074376;28;20192;-82
2023/07/25 04:47:32;;;;;;;4.20;3.90;;;22.40;77.60;21.80;95508.00;;;;5069014;28;20211;-83
2023/07/25 04:50:00;;;;;;;4.37;3.67;;;22.40;77.50;21.70;95506.00;;;;5069895;28;20208;-82
2023/07/25 04:52:29;;;;;;;4.20;3.90;;;22.30;77.40;21.70;95506.00;;;;5080105;28;20742;-82
2023/07/25 04:54:57;;;;;;;5.07;3.70;;;22.30;78.20;21.70;95504.00;;;;5076425;28;20350;-82
2023/07/25 04:57:24;;;;;;;2.73;2.53;;;22.30;77.40;21.70;95489.00;;;;5072993;28;20228;-83
2023/07/25 04:59:52;;;;;;;2.30;2.20;;;22.30;77.20;21.70;95487.00;;;;5078425;28;20727;-82
2023/07/25 05:02:20;;;;;;;2.30;2.10;;;22.30;77.00;21.60;95481.00;;;;5078217;28;20280;-82
2023/07/25 05:04:48;;;;;;;2.60;2.13;;;22.20;76.50;21.60;95478.00;;;;5086355;28;20283;-82
2023/07/25 05:07:16;;;;;;;2.67;2.07;;;22.20;76.30;21.60;95472.00;;;;5080096;28;20224;-82
2023/07/25 05:09:45;;;;;;;3.10;1.97;;;22.20;76.20;21.50;95471.00;;;;5084331;28;20254;-83
2023/07/25 05:12:14;;;;;;;2.40;2.20;;;22.10;76.00;21.50;95470.00;;;;5080816;28;20198;-80
2023/07/25 05:14:42;;;;;;;2.33;2.13;;;22.10;76.80;21.50;95467.00;;;;5079295;28;20649;-81
2023/07/25 05:17:09;;;;;;;2.30;1.90;;;22.00;76.10;21.40;95466.00;;;;5073859;28;20222;-80
2023/07/25 05:19:36;;;;;;;2.77;2.30;;;22.00;76.10;21.40;95463.00;;;;5080900;28;20216;-81
2023/07/25 05:22:04;;;;;;;2.53;2.20;;;22.00;75.90;21.40;95462.00;;;;5072812;28;20192;-81
2023/07/25 05:24:32;;;;;;;3.57;3.03;;;22.00;75.80;21.40;95450.00;;;;5078389;28;20196;-81
2023/07/25 05:27:00;;;;;;;2.80;2.37;;;21.90;75.80;21.40;95445.00;;;;5079647;28;20689;-82
2023/07/25 05:29:28;;;;;;;2.27;2.10;;;21.90;75.90;21.40;95443.00;;;;5079468;28;20279;-80
2023/07/25 05:31:55;;;;;;;2.30;2.10;;;21.90;76.20;21.40;95438.00;;;;5079298;28;20192;-82
2023/07/25 05:34:22;;;;;;;2.97;1.90;;;21.90;76.50;21.40;95434.00;;;;5071546;28;20209;-81
2023/07/25 05:36:49;;;;;;;2.70;2.50;;;21.90;76.60;21.40;95434.00;;;;5088596;28;20214;-83
2023/07/25 05:39:17;;;;;;;2.27;2.07;;;21.90;76.40;21.40;95418.00;;;;5077389;28;20642;-81
2023/07/25 05:41:44;;;;;;;2.27;2.07;;;21.90;76.10;21.40;95423.00;;;;5077637;28;20200;-82
2023/07/25 05:44:12;;;;;;;2.50;2.30;;;21.90;75.80;21.40;95434.00;;;;5075862;28;20548;-82
2023/07/25 05:46:39;;;;;;;3.33;2.53;;;21.90;76.00;21.30;95446.00;;;;5081359;28;20226;-82
2023/07/25 05:49:07;;;;;;;2.07;1.97;;;21.90;77.00;21.30;95431.00;;;;5074334;28;20968;-81
2023/07/25 05:51:34;;;;;;;2.37;2.17;;;21.90;76.10;21.30;95423.00;;;;5074979;28;20203;-82
2023/07/25 05:54:01;;;;;;;2.13;1.93;;;21.90;76.20;21.40;95428.00;;;;5072839;28;20678;-82
2023/07/25 05:56:28;;;;;;;2.20;2.00;;;22.00;76.10;21.40;95426.00;;;;5063152;28;20612;-81
2023/07/25 05:58:55;;;;;;;2.00;1.90;;;21.90;76.00;21.40;95405.00;;;;5088482;28;20221;-83
2023/07/25 06:01:24;;;;;;;2.00;1.70;;;22.00;76.30;21.40;95394.00;;;;5078732;28;20195;-81
2023/07/25 06:03:51;;;;;;;2.27;2.03;;;22.00;76.10;21.40;95381.00;;;;5070493;28;20233;-81
2023/07/25 06:06:18;;;;;;;2.40;2.20;;;22.00;75.70;21.40;95364.00;;;;5078937;28;20212;-81
2023/07/25 06:08:45;;;;;;;2.20;2.00;;;22.00;75.70;21.40;95344.00;;;;5083676;28;20290;-80
2023/07/25 06:11:13;;;;;;;2.33;2.00;;;22.00;76.70;21.40;95344.00;;;;5087539;28;20192;-81
2023/07/25 06:13:40;;;;;;;2.30;2.10;;;22.00;76.10;21.40;95337.00;;;;5079331;28;20199;-81
2023/07/25 06:16:07;;;;;;;2.00;1.87;;;22.00;76.40;21.40;95342.00;;;;5072753;28;20297;-80
2023/07/25 06:18:36;;;;;;;2.13;1.93;;;22.00;76.60;21.40;95344.00;;;;5077371;28;20223;-81
2023/07/25 06:21:03;;;;;;;1.93;1.83;;;22.00;76.80;21.40;95350.00;;;;5086033;28;20241;-81
2023/07/25 06:23:30;;;;;;;2.63;1.90;;;22.00;77.00;21.50;95354.00;;;;5079769;28;20222;-80
2023/07/25 06:25:58;;;;;;;3.80;2.07;;;22.10;77.30;21.50;95354.00;;;;5075993;28;20212;-81
2023/07/25 06:28:25;;;;;;;1.93;1.83;;;22.10;77.30;21.60;95341.00;;;;5073830;28;20283;-83
2023/07/25 06:30:52;;;;;;;1.93;1.67;;;22.10;77.20;21.60;95317.00;;;;5074162;28;20283;-84
2023/07/25 06:33:20;;;;;;;1.80;1.67;;;22.20;77.00;21.60;95310.00;;;;5067392;28;20284;-81
2023/07/25 06:35:49;;;;;;;2.10;2.00;;;22.20;77.10;21.70;95308.00;;;;5075364;28;20219;-81
2023/07/25 06:38:16;;;;;;;1.90;1.70;;;22.20;77.20;21.70;95305.00;;;;5076338;28;20196;-80
2023/07/25 06:40:43;;;;;;;2.00;1.90;;;22.30;77.20;21.70;95305.00;;;;5065469;28;20496;-81
2023/07/25 06:43:10;;;;;;;2.30;2.10;;;22.30;77.10;21.80;95319.00;;;;5063339;28;20957;-85
2023/07/25 06:45:37;;;;;;;2.60;2.37;;;22.40;77.10;21.80;95324.00;;;;5065299;28;20195;-85
2023/07/25 06:48:05;;;;;;;2.23;2.03;;;22.40;77.10;21.80;95327.00;;;;5071551;28;20641;-80
2023/07/25 06:50:33;;;;;;;2.67;1.87;;;22.40;76.90;21.90;95337.00;;;;5067727;28;20196;-81
2023/07/25 06:53:02;;;;;;;2.60;2.40;;;22.50;76.90;22.00;95337.00;;;;5067093;28;20208;-80
2023/07/25 06:55:29;;;;;;;2.20;2.03;;;22.50;77.00;22.00;95326.00;;;;5072635;28;20563;-81
2023/07/25 06:57:56;;;;;;;3.00;2.20;;;22.60;76.90;22.10;95330.00;;;;5073953;28;20275;-80
2023/07/25 07:00:23;;;;;;;2.37;2.17;;;22.60;76.80;22.10;95328.00;;;;5073646;28;20219;-80
2023/07/25 07:02:51;;;;;;;1.97;1.73;;;22.70;76.70;22.20;95341.00;;;;5072471;28;20202;-81
2023/07/25 07:05:18;;;;;;;1.83;1.73;;;22.70;76.70;22.20;95351.00;;;;5067138;28;20247;-81
2023/07/25 07:07:45;;;;;;;2.03;1.83;;;22.70;76.70;22.30;95353.00;;;;5073010;28;20298;-81
2023/07/25 07:10:13;;;;;;;3.40;2.20;;;22.80;76.60;22.30;95358.00;;;;5075147;28;20196;-80
2023/07/25 07:12:46;;;;;;;2.07;1.97;;;22.90;76.60;22.30;95369.00;;;;5078101;28;20201;-81
2023/07/25 07:15:14;;;;;;;2.10;2.00;;;22.90;76.60;22.40;95364.00;;;;5084088;28;20611;-81
2023/07/25 07:17:42;;;;;;;2.00;1.77;;;22.90;75.80;22.50;95378.00;;;;5071860;28;20225;-80
2023/07/25 07:20:11;;;;;;;2.00;1.90;;;23.00;75.60;22.50;95377.00;;;;5075375;28;20215;-81
2023/07/25 07:22:39;;;;;;;2.37;2.10;;;23.00;75.70;22.50;95378.00;;;;5073357;28;20659;-80
2023/07/25 07:25:07;;;;;;;1.90;1.80;;;23.00;74.80;22.50;95387.00;;;;5074339;28;20652;-80
2023/07/25 07:27:36;;;;;;;2.20;2.00;;;23.00;74.40;22.50;95402.00;;;;5068585;28;20218;-80
2023/07/25 07:30:04;;;;;;;1.67;1.57;;;23.00;74.20;22.50;95407.00;;;;5074269;28;20192;-80
2023/07/25 07:32:31;;;;;;;1.70;1.60;;;23.10;74.60;22.50;95406.00;;;;5073813;28;20214;-81
2023/07/25 07:34:59;;;;;;;2.17;1.80;;;23.00;74.40;22.50;95413.00;;;;5074251;28;20849;-81
2023/07/25 07:37:27;;;;;;;2.67;1.80;;;23.10;74.50;22.60;95417.00;;;;5091940;28;20276;-83
2023/07/25 07:39:55;;;;;;;1.70;1.60;;;23.10;74.90;22.60;95426.00;;;;5075658;28;20225;-80
2023/07/25 07:42:22;;;;;;;2.00;1.80;;;23.10;74.90;22.60;95429.00;;;;5074155;28;20188;-81
2023/07/25 07:44:52;;;;;;;1.90;1.70;;;23.10;75.00;22.70;95441.00;;;;5071384;28;20195;-81
2023/07/25 07:47:20;;;;;;;1.90;1.80;;;23.20;74.70;22.70;95421.00;;;;5076143;28;20312;-82
2023/07/25 07:49:48;;;;;;;1.83;1.70;;;23.20;74.70;22.70;95425.00;;;;5086413;28;20235;-83
2023/07/25 07:52:15;;;;;;;2.10;1.73;;;23.20;74.60;22.80;95427.00;;;;5075773;28;20255;-81
2023/07/25 07:54:42;;;;;;;1.60;1.50;;;23.20;74.70;22.80;95440.00;;;;5074061;28;20196;-81
2023/07/25 07:57:10;;;;;;;1.70;1.60;;;23.30;74.80;22.80;95423.00;;;;5072400;28;20230;-81
2023/07/25 07:59:37;;;;;;;2.37;1.93;;;23.30;74.70;22.90;95422.00;;;;5082487;28;20216;-81
2023/07/25 08:02:07;;;;;;;1.67;1.57;;;23.30;74.70;22.90;95428.00;;;;5070514;28;20572;-81
2023/07/25 08:04:34;;;;;;;2.00;1.90;;;23.40;74.70;23.00;95434.00;;;;5072378;28;20208;-81
2023/07/25 08:07:01;;;;;;;2.40;1.83;;;23.40;74.60;23.00;95435.00;;;;5073289;28;20217;-81
2023/07/25 08:09:29;;;;;;;1.60;1.50;;;23.50;74.60;23.00;95431.00;;;;5074948;28;20192;-81
2023/07/25 08:11:58;;;;;;;1.67;1.57;;;23.50;74.50;23.10;95425.00;;;;5070030;28;20644;-81
2023/07/25 08:14:26;;;;;;;1.50;1.40;;;23.50;74.50;23.10;95417.00;;;;5073690;28;20203;-81
2023/07/25 08:16:53;;;;;;;2.27;1.93;;;23.60;74.50;23.10;95404.00;;;;5071800;28;20586;-81
2023/07/25 08:19:24;;;;;;;1.87;1.67;;;23.60;73.70;23.10;95401.00;;;;5073680;28;20729;-81
2023/07/25 08:21:54;;;;;;;2.23;1.70;;;23.60;73.00;23.20;95404.00;;;;5075003;28;20278;-81
2023/07/25 08:24:21;;;;;;;3.20;1.80;;;23.70;72.90;23.20;95405.00;;;;5073524;28;20279;-81
2023/07/25 08:26:49;;;;;;;1.83;1.50;;;23.70;73.50;23.30;95401.00;;;;5073068;28;20229;-81
2023/07/25 08:29:16;;;;;;;2.20;1.83;;;23.70;73.60;23.30;95411.00;;;;5071997;28;20203;-82
2023/07/25 08:31:43;;;;;;;2.13;1.80;;;23.80;73.20;23.40;95409.00;;;;5071258;28;20203;-83
2023/07/25 08:34:11;;;;;;;1.90;1.80;;;23.80;72.60;23.40;95408.00;;;;5075369;28;20205;-83
2023/07/25 08:36:39;;;;;;;1.67;1.57;;;23.80;72.30;23.40;95414.00;;;;5079957;28;20311;-81
2023/07/25 08:39:06;;;;;;;1.90;1.80;;;23.80;72.40;23.50;95409.00;;;;5081317;28;20194;-81
2023/07/25 08:41:40;;;;;;;1.90;1.80;;;23.90;73.00;23.50;95403.00;;;;5073106;28;20230;-81
2023/07/25 08:44:10;;;;;;;1.63;1.53;;;23.90;72.60;23.50;95410.00;;;;5073711;28;20667;-81
2023/07/25 08:46:45;;;;;;;2.80;1.90;;;24.00;72.70;23.60;95413.00;;;;5086498;28;20225;-81
2023/07/25 08:49:17;;;;;;;2.77;1.90;;;24.00;72.40;23.60;95419.00;;;;5079698;28;20194;-81
2023/07/25 08:51:51;;;;;;;2.23;1.77;;;24.00;72.20;23.60;95411.00;;;;5071528;28;20192;-81
2023/07/25 08:54:31;;;;;;;1.67;1.57;;;24.10;73.30;23.70;95408.00;;;;5074585;28;20293;-82
2023/07/25 08:56:59;;;;;;;3.00;1.83;;;24.10;72.10;23.70;95413.00;;;;5072515;28;20210;-81
2023/07/25 08:59:27;;;;;;;3.37;1.77;;;24.10;72.10;23.70;95415.00;;;;5073568;28;20222;-80
2023/07/25 09:01:55;;;;;;;3.80;1.83;;;24.10;72.00;23.70;95414.00;;;;5084204;28;20214;-80
2023/07/25 09:04:24;;;;;;;2.17;1.80;;;24.20;71.90;23.70;95412.00;;;;5083111;28;20649;-81
2023/07/25 09:06:54;;;;;;;1.87;1.70;;;24.10;72.00;23.70;95408.00;;;;5065493;28;20315;-80
2023/07/25 09:09:21;;;;;;;1.43;1.33;;;24.20;71.90;23.70;95411.00;;;;5077610;28;20279;-80
2023/07/25 09:11:49;;;;;;;1.60;1.50;;;24.10;72.10;23.60;95410.00;;;;5078810;28;20204;-81
2023/07/25 09:14:18;;;;;;;1.83;1.70;;;24.10;72.00;23.60;95420.00;;;;5073473;28;20195;-82
2023/07/25 09:16:45;;;;;;;2.67;1.50;;;24.10;72.40;23.60;95421.00;;;;5074987;28;20289;-81
2023/07/25 09:19:13;;;;;;;1.93;1.83;;;24.10;72.60;23.60;95428.00;;;;5063613;28;20225;-81
2023/07/25 09:21:49;;;;;;;1.87;1.77;;;24.10;72.40;23.60;95425.00;;;;5078314;28;20210;-80
2023/07/25 09:24:18;;;;;;;1.90;1.70;;;24.10;72.50;23.60;95439.00;;;;5071051;28;20312;-80
2023/07/25 09:26:53;;;;;;;1.70;1.60;;;24.10;72.60;23.60;95437.00;;;;5071280;28;20897;-80
2023/07/25 09:29:26;;;;;;;1.70;1.60;;;24.10;72.50;23.50;95438.00;;;;5066386;28;20664;-81
2023/07/25 09:31:53;;;;;;;1.70;1.60;;;24.10;72.50;23.50;95440.00;;;;5071860;28;20206;-81
2023/07/25 09:34:25;;;;;;;3.47;1.50;;;24.00;72.50;23.50;95430.00;;;;5076478;28;20755;-81
2023/07/25 09:36:53;;;;;;;1.43;1.30;;;24.00;72.20;23.50;95434.00;;;;5081253;28;20220;-80
2023/07/25 09:39:21;;;;;;;2.40;1.50;;;24.00;72.30;23.40;95422.00;;;;5079202;28;20303;-81
2023/07/25 09:41:52;;;;;;;1.60;1.50;;;23.90;72.30;23.40;95419.00;;;;5080842;28;20260;-80
2023/07/25 09:44:19;;;;;;;3.13;1.60;;;23.90;72.10;23.30;95409.00;;;;5081617;28;20196;-80
2023/07/25 09:46:52;;;;;;;1.50;1.40;;;23.90;71.60;23.30;95401.00;;;;5078788;28;20849;-81
2023/07/25 09:49:22;;;;;;;1.47;1.37;;;23.80;71.00;23.20;95400.00;;;;5075016;28;20199;-81
2023/07/25 09:51:59;;;;;;;2.17;2.00;;;23.80;70.90;23.10;95414.00;;;;5087130;28;20197;-81
2023/07/25 09:54:28;;;;;;;1.50;1.40;;;23.70;70.50;23.10;95400.00;;;;5079361;28;20206;-83
2023/07/25 09:56:55;;;;;;;1.50;1.23;;;23.70;70.50;23.10;95403.00;;;;5096970;28;20640;-81
2023/07/25 09:59:23;;;;;;;1.17;1.07;;;23.60;70.50;23.00;95404.00;;;;5087848;28;20193;-81
2023/07/25 10:01:51;;;;;;;2.90;1.57;;;23.60;70.50;23.00;95408.00;;;;5092689;28;20211;-80
2023/07/25 10:04:21;;;;;;;1.97;1.40;;;23.50;70.10;23.00;95407.00;;;;5094714;28;20193;-81
2023/07/25 10:06:50;;;;;;;1.40;1.30;;;23.50;70.00;23.00;95414.00;;;;5094620;28;20303;-80
2023/07/25 10:09:19;;;;;;;1.20;1.10;;;23.50;69.80;22.90;95408.00;;;;5077842;28;20199;-81
2023/07/25 10:11:48;;;;;;;1.40;1.30;;;23.50;70.30;22.90;95411.00;;;;5072825;28;20212;-81
2023/07/25 10:14:16;;;;;;;1.07;1.03;;;23.40;69.40;22.90;95412.00;;;;5086299;28;20187;-81
2023/07/25 10:16:44;;;;;;;1.23;1.13;;;23.40;69.40;22.80;95413.00;;;;5076362;28;20220;-80
2023/07/25 10:19:11;;;;;;;1.57;1.10;;;23.40;69.40;22.80;95413.00;;;;5075641;28;20203;-81
2023/07/25 10:21:50;;;;;;;1.10;1.10;;;23.40;69.60;22.80;95416.00;;;;5076038;28;20235;-81
2023/07/25 10:24:20;;;;;;;1.70;1.10;;;23.30;69.30;22.90;95421.00;;;;5084695;28;20194;-82
2023/07/25 10:26:57;;;;;;;1.50;1.40;;;23.40;69.40;22.90;95426.00;;;;5075801;28;20222;-82
2023/07/25 10:29:41;;;;;;;1.37;1.27;;;23.40;68.90;22.90;95417.00;;;;5068343;28;20590;-81
2023/07/25 10:32:13;;;;;;;0.90;0.90;;;23.40;69.10;22.90;95417.00;;;;5071123;28;20196;-81
2023/07/25 10:34:52;;;;;;;1.53;1.43;;;23.40;69.50;23.00;95428.00;;;;5074326;28;20200;-82
2023/07/25 10:37:28;;;;;;;1.53;1.00;;;23.40;69.20;23.00;95429.00;;;;5078002;28;20217;-82
2023/07/25 10:40:11;;;;;;;1.20;0.90;;;23.50;69.10;23.10;95425.00;;;;5067949;28;20592;-82
2023/07/25 10:42:50;;;;;;;1.10;1.00;;;23.50;69.10;23.20;95430.00;;;;5087906;28;20212;-83
2023/07/25 10:45:53;;;;;;;1.63;0.87;;;23.60;69.60;23.30;95430.00;;;;5091538;28;20267;-82
2023/07/25 10:48:32;;;;;;;1.30;1.20;;;23.60;69.40;23.40;95436.00;;;;5083186;28;20193;-81
2023/07/25 10:51:01;;;;;;;1.17;1.00;;;23.80;69.00;23.50;95423.00;;;;5074762;28;20233;-81
2023/07/25 10:53:28;;;;;;;1.33;1.20;;;23.80;70.00;23.60;95424.00;;;;5074667;28;20837;-82
2023/07/25 10:56:16;;;;;;;0.80;0.80;;;24.00;70.20;23.80;95421.00;;;;5086095;28;20310;-82
2023/07/25 10:59:08;;;;;;;1.70;1.10;;;24.10;70.10;24.00;95427.00;;;;5077688;28;20204;-82
2023/07/25 11:01:45;;;;;;;1.27;1.00;;;24.30;69.80;24.10;95418.00;;;;5086327;28;20227;-83